sensor_id;sensor_type;location;lat;lon;timestamp;P1;durP1;ratioP1;P2;durP2;ratioP2
25439;SDS011;13365;52.208;5.488;2024-01-16T00:02:10;6.75;;;1.42;;
25439;SDS011;13365;52.208;5.488;2024-01-16T00:04:36;12.65;;;1.33;;
25439;SDS011;13365;52.208;5.488;2024-01-16T00:07:02;6.70;;;1.10;;
25439;SDS011;13365;52.208;5.488;2024-01-16T00:09:29;7.28;;;1.10;;
25439;SDS011;13365;52.208;5.488;2024-01-16T00:11:54;10.50;;;1.52;;
25439;SDS011;13365;52.208;5.488;2024-01-16T00:14:20;10.25;;;1.38;;
25439;SDS011;13365;52.208;5.488;2024-01-16T00:16:45;4.78;;;1.27;;
25439;SDS011;13365;52.208;5.488;2024-01-16T00:19:13;9.90;;;1.20;;
25439;SDS011;13365;52.208;5.488;2024-01-16T00:21:39;12.35;;;1.95;;
25439;SDS011;13365;52.208;5.488;2024-01-16T00:24:06;5.47;;;1.35;;
25439;SDS011;13365;52.208;5.488;2024-01-16T00:26:32;12.88;;;1.92;;
25439;SDS011;13365;52.208;5.488;2024-01-16T00:28:57;7.95;;;1.23;;
25439;SDS011;13365;52.208;5.488;2024-01-16T00:31:23;11.00;;;1.30;;
25439;SDS011;13365;52.208;5.488;2024-01-16T00:33:48;4.90;;;1.10;;
25439;SDS011;13365;52.208;5.488;2024-01-16T00:36:14;7.95;;;1.33;;
25439;SDS011;13365;52.208;5.488;2024-01-16T00:38:40;8.00;;;1.20;;
25439;SDS011;13365;52.208;5.488;2024-01-16T00:41:06;9.20;;;1.23;;
25439;SDS011;13365;52.208;5.488;2024-01-16T00:43:32;7.15;;;1.20;;
25439;SDS011;13365;52.208;5.488;2024-01-16T00:45:57;11.40;;;0.98;;
25439;SDS011;13365;52.208;5.488;2024-01-16T00:48:23;10.93;;;1.13;;
25439;SDS011;13365;52.208;5.488;2024-01-16T00:50:49;10.10;;;1.00;;
25439;SDS011;13365;52.208;5.488;2024-01-16T00:53:18;6.00;;;0.88;;
25439;SDS011;13365;52.208;5.488;2024-01-16T00:55:43;8.52;;;0.82;;
25439;SDS011;13365;52.208;5.488;2024-01-16T00:58:09;5.15;;;0.90;;
25439;SDS011;13365;52.208;5.488;2024-01-16T01:00:34;11.75;;;1.15;;
25439;SDS011;13365;52.208;5.488;2024-01-16T01:03:02;7.13;;;1.23;;
25439;SDS011;13365;52.208;5.488;2024-01-16T01:05:28;9.85;;;1.13;;
25439;SDS011;13365;52.208;5.488;2024-01-16T01:07:57;4.63;;;1.05;;
25439;SDS011;13365;52.208;5.488;2024-01-16T01:10:23;3.10;;;0.90;;
25439;SDS011;13365;52.208;5.488;2024-01-16T01:12:49;7.13;;;0.85;;
25439;SDS011;13365;52.208;5.488;2024-01-16T01:15:15;8.75;;;0.77;;
25439;SDS011;13365;52.208;5.488;2024-01-16T01:17:41;2.50;;;0.60;;
25439;SDS011;13365;52.208;5.488;2024-01-16T01:20:07;3.22;;;0.60;;
25439;SDS011;13365;52.208;5.488;2024-01-16T01:22:34;1.70;;;0.65;;
25439;SDS011;13365;52.208;5.488;2024-01-16T01:25:08;4.13;;;0.60;;
25439;SDS011;13365;52.208;5.488;2024-01-16T01:27:34;2.85;;;0.68;;
25439;SDS011;13365;52.208;5.488;2024-01-16T01:30:00;9.20;;;1.30;;
25439;SDS011;13365;52.208;5.488;2024-01-16T01:32:25;4.60;;;0.77;;
25439;SDS011;13365;52.208;5.488;2024-01-16T01:34:52;7.03;;;0.98;;
25439;SDS011;13365;52.208;5.488;2024-01-16T01:37:17;7.00;;;1.05;;
25439;SDS011;13365;52.208;5.488;2024-01-16T01:39:43;5.57;;;0.60;;
25439;SDS011;13365;52.208;5.488;2024-01-16T01:42:08;4.03;;;0.70;;
25439;SDS011;13365;52.208;5.488;2024-01-16T01:44:34;9.82;;;1.10;;
25439;SDS011;13365;52.208;5.488;2024-01-16T01:47:00;4.45;;;0.88;;
25439;SDS011;13365;52.208;5.488;2024-01-16T01:49:25;9.93;;;0.77;;
25439;SDS011;13365;52.208;5.488;2024-01-16T01:51:52;5.00;;;0.63;;
25439;SDS011;13365;52.208;5.488;2024-01-16T01:54:19;6.25;;;0.77;;
25439;SDS011;13365;52.208;5.488;2024-01-16T01:56:46;4.82;;;1.20;;
25439;SDS011;13365;52.208;5.488;2024-01-16T01:59:16;7.57;;;0.75;;
25439;SDS011;13365;52.208;5.488;2024-01-16T02:01:44;6.47;;;1.55;;
25439;SDS011;13365;52.208;5.488;2024-01-16T02:04:12;4.47;;;1.00;;
25439;SDS011;13365;52.208;5.488;2024-01-16T02:06:40;2.97;;;0.65;;
25439;SDS011;13365;52.208;5.488;2024-01-16T02:09:07;5.18;;;0.70;;
25439;SDS011;13365;52.208;5.488;2024-01-16T02:11:33;4.72;;;0.73;;
25439;SDS011;13365;52.208;5.488;2024-01-16T02:13:59;3.20;;;0.22;;
25439;SDS011;13365;52.208;5.488;2024-01-16T02:16:25;9.93;;;1.05;;
25439;SDS011;13365;52.208;5.488;2024-01-16T02:18:51;5.65;;;0.70;;
25439;SDS011;13365;52.208;5.488;2024-01-16T02:21:21;6.28;;;0.50;;
25439;SDS011;13365;52.208;5.488;2024-01-16T02:23:47;2.17;;;0.32;;
25439;SDS011;13365;52.208;5.488;2024-01-16T02:26:17;5.95;;;0.35;;
25439;SDS011;13365;52.208;5.488;2024-01-16T02:28:43;2.88;;;0.50;;
25439;SDS011;13365;52.208;5.488;2024-01-16T02:31:09;3.13;;;0.40;;
25439;SDS011;13365;52.208;5.488;2024-01-16T02:33:34;2.88;;;0.70;;
25439;SDS011;13365;52.208;5.488;2024-01-16T02:36:00;0.55;;;0.22;;
25439;SDS011;13365;52.208;5.488;2024-01-16T02:38:25;1.95;;;0.32;;
25439;SDS011;13365;52.208;5.488;2024-01-16T02:40:51;1.75;;;0.38;;
25439;SDS011;13365;52.208;5.488;2024-01-16T02:43:18;5.70;;;0.40;;
25439;SDS011;13365;52.208;5.488;2024-01-16T02:45:43;2.83;;;0.60;;
25439;SDS011;13365;52.208;5.488;2024-01-16T02:48:09;1.05;;;0.43;;
25439;SDS011;13365;52.208;5.488;2024-01-16T02:50:35;2.50;;;0.68;;
25439;SDS011;13365;52.208;5.488;2024-01-16T02:53:00;5.25;;;0.60;;
25439;SDS011;13365;52.208;5.488;2024-01-16T02:55:26;4.05;;;0.50;;
25439;SDS011;13365;52.208;5.488;2024-01-16T02:57:51;6.05;;;0.98;;
25439;SDS011;13365;52.208;5.488;2024-01-16T03:00:22;5.28;;;0.40;;
25439;SDS011;13365;52.208;5.488;2024-01-16T03:02:48;3.22;;;0.50;;
25439;SDS011;13365;52.208;5.488;2024-01-16T03:05:13;2.33;;;0.63;;
25439;SDS011;13365;52.208;5.488;2024-01-16T03:07:39;4.18;;;0.80;;
25439;SDS011;13365;52.208;5.488;2024-01-16T03:10:05;2.72;;;0.73;;
25439;SDS011;13365;52.208;5.488;2024-01-16T03:12:31;2.80;;;0.63;;
25439;SDS011;13365;52.208;5.488;2024-01-16T03:14:57;3.50;;;0.93;;
25439;SDS011;13365;52.208;5.488;2024-01-16T03:17:23;1.63;;;0.45;;
25439;SDS011;13365;52.208;5.488;2024-01-16T03:19:48;3.45;;;0.65;;
25439;SDS011;13365;52.208;5.488;2024-01-16T03:22:14;3.88;;;0.57;;
25439;SDS011;13365;52.208;5.488;2024-01-16T03:24:40;3.00;;;0.68;;
25439;SDS011;13365;52.208;5.488;2024-01-16T03:27:05;2.88;;;0.90;;
25439;SDS011;13365;52.208;5.488;2024-01-16T03:29:31;3.95;;;0.47;;
25439;SDS011;13365;52.208;5.488;2024-01-16T03:31:58;0.85;;;0.32;;
25439;SDS011;13365;52.208;5.488;2024-01-16T03:34:24;6.15;;;0.52;;
25439;SDS011;13365;52.208;5.488;2024-01-16T03:36:49;3.10;;;0.50;;
25439;SDS011;13365;52.208;5.488;2024-01-16T03:39:15;3.35;;;0.50;;
25439;SDS011;13365;52.208;5.488;2024-01-16T03:41:41;3.13;;;0.32;;
25439;SDS011;13365;52.208;5.488;2024-01-16T03:44:06;4.80;;;0.50;;
25439;SDS011;13365;52.208;5.488;2024-01-16T03:46:32;6.32;;;0.40;;
25439;SDS011;13365;52.208;5.488;2024-01-16T03:48:58;4.00;;;0.57;;
25439;SDS011;13365;52.208;5.488;2024-01-16T03:51:23;2.92;;;0.35;;
25439;SDS011;13365;52.208;5.488;2024-01-16T03:53:49;2.15;;;0.25;;
25439;SDS011;13365;52.208;5.488;2024-01-16T03:56:15;3.60;;;0.43;;
25439;SDS011;13365;52.208;5.488;2024-01-16T03:58:41;1.50;;;0.32;;
25439;SDS011;13365;52.208;5.488;2024-01-16T04:01:07;2.95;;;0.35;;
25439;SDS011;13365;52.208;5.488;2024-01-16T04:03:32;4.43;;;0.73;;
25439;SDS011;13365;52.208;5.488;2024-01-16T04:05:59;1.27;;;0.32;;
25439;SDS011;13365;52.208;5.488;2024-01-16T04:08:25;1.40;;;0.38;;
25439;SDS011;13365;52.208;5.488;2024-01-16T04:10:51;5.78;;;0.43;;
25439;SDS011;13365;52.208;5.488;2024-01-16T04:13:16;2.50;;;0.50;;
25439;SDS011;13365;52.208;5.488;2024-01-16T04:15:42;1.52;;;0.25;;
25439;SDS011;13365;52.208;5.488;2024-01-16T04:18:08;4.00;;;0.50;;
25439;SDS011;13365;52.208;5.488;2024-01-16T04:20:34;1.98;;;0.73;;
25439;SDS011;13365;52.208;5.488;2024-01-16T04:22:59;3.22;;;0.32;;
25439;SDS011;13365;52.208;5.488;2024-01-16T04:25:25;8.90;;;0.70;;
25439;SDS011;13365;52.208;5.488;2024-01-16T04:27:50;3.88;;;0.40;;
25439;SDS011;13365;52.208;5.488;2024-01-16T04:30:16;1.80;;;0.38;;
25439;SDS011;13365;52.208;5.488;2024-01-16T04:32:41;2.22;;;0.47;;
25439;SDS011;13365;52.208;5.488;2024-01-16T04:35:08;1.08;;;0.45;;
25439;SDS011;13365;52.208;5.488;2024-01-16T04:37:34;4.13;;;0.65;;
25439;SDS011;13365;52.208;5.488;2024-01-16T04:39:59;2.72;;;0.40;;
25439;SDS011;13365;52.208;5.488;2024-01-16T04:42:25;1.80;;;0.40;;
25439;SDS011;13365;52.208;5.488;2024-01-16T04:44:50;2.35;;;0.35;;
25439;SDS011;13365;52.208;5.488;2024-01-16T04:47:16;5.95;;;0.55;;
25439;SDS011;13365;52.208;5.488;2024-01-16T04:49:42;3.75;;;0.60;;
25439;SDS011;13365;52.208;5.488;2024-01-16T04:52:09;5.18;;;0.70;;
25439;SDS011;13365;52.208;5.488;2024-01-16T04:54:34;2.53;;;0.40;;
25439;SDS011;13365;52.208;5.488;2024-01-16T04:57:00;4.40;;;0.55;;
25439;SDS011;13365;52.208;5.488;2024-01-16T04:59:26;4.22;;;1.63;;
25439;SDS011;13365;52.208;5.488;2024-01-16T05:01:51;4.90;;;0.75;;
25439;SDS011;13365;52.208;5.488;2024-01-16T05:04:17;4.57;;;0.70;;
25439;SDS011;13365;52.208;5.488;2024-01-16T05:06:43;3.92;;;0.80;;
25439;SDS011;13365;52.208;5.488;2024-01-16T05:09:08;5.40;;;0.80;;
25439;SDS011;13365;52.208;5.488;2024-01-16T05:11:34;1.15;;;0.47;;
25439;SDS011;13365;52.208;5.488;2024-01-16T05:14:00;6.00;;;0.75;;
25439;SDS011;13365;52.208;5.488;2024-01-16T05:16:26;10.80;;;0.70;;
25439;SDS011;13365;52.208;5.488;2024-01-16T05:18:52;4.13;;;0.75;;
25439;SDS011;13365;52.208;5.488;2024-01-16T05:21:21;2.03;;;0.85;;
25439;SDS011;13365;52.208;5.488;2024-01-16T05:23:47;4.13;;;0.82;;
25439;SDS011;13365;52.208;5.488;2024-01-16T05:26:12;3.67;;;0.95;;
25439;SDS011;13365;52.208;5.488;2024-01-16T05:28:38;9.23;;;0.93;;
25439;SDS011;13365;52.208;5.488;2024-01-16T05:31:04;2.20;;;0.90;;
25439;SDS011;13365;52.208;5.488;2024-01-16T05:33:30;4.07;;;0.82;;
25439;SDS011;13365;52.208;5.488;2024-01-16T05:35:57;3.42;;;0.90;;
25439;SDS011;13365;52.208;5.488;2024-01-16T05:38:23;7.30;;;1.10;;
25439;SDS011;13365;52.208;5.488;2024-01-16T05:40:48;4.68;;;1.00;;
25439;SDS011;13365;52.208;5.488;2024-01-16T05:43:14;3.70;;;0.80;;
25439;SDS011;13365;52.208;5.488;2024-01-16T05:45:39;5.25;;;0.93;;
25439;SDS011;13365;52.208;5.488;2024-01-16T05:48:05;1.50;;;0.68;;
25439;SDS011;13365;52.208;5.488;2024-01-16T05:50:34;3.40;;;0.77;;
25439;SDS011;13365;52.208;5.488;2024-01-16T05:53:00;5.05;;;0.95;;
25439;SDS011;13365;52.208;5.488;2024-01-16T05:55:27;5.22;;;1.27;;
25439;SDS011;13365;52.208;5.488;2024-01-16T05:57:53;7.32;;;1.02;;
25439;SDS011;13365;52.208;5.488;2024-01-16T06:00:19;4.43;;;1.08;;
25439;SDS011;13365;52.208;5.488;2024-01-16T06:02:47;4.47;;;1.10;;
25439;SDS011;13365;52.208;5.488;2024-01-16T06:05:13;5.70;;;1.38;;
25439;SDS011;13365;52.208;5.488;2024-01-16T06:07:38;2.22;;;1.08;;
25439;SDS011;13365;52.208;5.488;2024-01-16T06:10:05;5.18;;;1.40;;
25439;SDS011;13365;52.208;5.488;2024-01-16T06:12:31;2.40;;;1.30;;
25439;SDS011;13365;52.208;5.488;2024-01-16T06:14:56;4.00;;;1.38;;
25439;SDS011;13365;52.208;5.488;2024-01-16T06:17:22;4.38;;;1.55;;
25439;SDS011;13365;52.208;5.488;2024-01-16T06:19:48;6.47;;;1.70;;
25439;SDS011;13365;52.208;5.488;2024-01-16T06:22:14;4.18;;;1.95;;
25439;SDS011;13365;52.208;5.488;2024-01-16T06:24:39;9.02;;;1.67;;
25439;SDS011;13365;52.208;5.488;2024-01-16T06:27:05;8.23;;;1.92;;
25439;SDS011;13365;52.208;5.488;2024-01-16T06:29:31;9.45;;;1.63;;
25439;SDS011;13365;52.208;5.488;2024-01-16T06:31:57;1.85;;;1.13;;
25439;SDS011;13365;52.208;5.488;2024-01-16T06:34:23;3.67;;;1.55;;
25439;SDS011;13365;52.208;5.488;2024-01-16T06:36:48;4.72;;;1.35;;
25439;SDS011;13365;52.208;5.488;2024-01-16T06:39:17;4.00;;;1.58;;
25439;SDS011;13365;52.208;5.488;2024-01-16T06:41:43;7.68;;;1.52;;
25439;SDS011;13365;52.208;5.488;2024-01-16T06:44:08;3.30;;;1.27;;
25439;SDS011;13365;52.208;5.488;2024-01-16T06:46:34;5.45;;;0.90;;
25439;SDS011;13365;52.208;5.488;2024-01-16T06:49:00;2.28;;;1.00;;
25439;SDS011;13365;52.208;5.488;2024-01-16T06:51:26;5.13;;;0.80;;
25439;SDS011;13365;52.208;5.488;2024-01-16T06:53:52;5.95;;;1.02;;
25439;SDS011;13365;52.208;5.488;2024-01-16T06:56:17;3.47;;;1.05;;
25439;SDS011;13365;52.208;5.488;2024-01-16T06:58:43;3.17;;;0.75;;
25439;SDS011;13365;52.208;5.488;2024-01-16T07:01:09;9.60;;;1.23;;
25439;SDS011;13365;52.208;5.488;2024-01-16T07:03:35;4.38;;;0.77;;
25439;SDS011;13365;52.208;5.488;2024-01-16T07:06:00;5.78;;;1.23;;
25439;SDS011;13365;52.208;5.488;2024-01-16T07:08:26;1.15;;;0.60;;
25439;SDS011;13365;52.208;5.488;2024-01-16T07:10:52;6.57;;;1.25;;
25439;SDS011;13365;52.208;5.488;2024-01-16T07:13:18;3.35;;;1.05;;
25439;SDS011;13365;52.208;5.488;2024-01-16T07:15:44;8.13;;;1.05;;
25439;SDS011;13365;52.208;5.488;2024-01-16T07:18:10;5.75;;;1.15;;
25439;SDS011;13365;52.208;5.488;2024-01-16T07:20:35;1.48;;;0.60;;
25439;SDS011;13365;52.208;5.488;2024-01-16T07:23:01;2.28;;;0.70;;
25439;SDS011;13365;52.208;5.488;2024-01-16T07:25:27;3.80;;;0.80;;
25439;SDS011;13365;52.208;5.488;2024-01-16T07:27:53;3.42;;;0.93;;
25439;SDS011;13365;52.208;5.488;2024-01-16T07:30:18;4.60;;;1.13;;
25439;SDS011;13365;52.208;5.488;2024-01-16T07:32:44;8.23;;;1.75;;
25439;SDS011;13365;52.208;5.488;2024-01-16T07:35:10;2.35;;;1.13;;
25439;SDS011;13365;52.208;5.488;2024-01-16T07:37:35;13.10;;;1.92;;
25439;SDS011;13365;52.208;5.488;2024-01-16T07:40:01;7.43;;;1.60;;
25439;SDS011;13365;52.208;5.488;2024-01-16T07:42:27;10.00;;;1.75;;
25439;SDS011;13365;52.208;5.488;2024-01-16T07:47:25;10.18;;;1.70;;
25439;SDS011;13365;52.208;5.488;2024-01-16T07:49:50;7.63;;;1.98;;
25439;SDS011;13365;52.208;5.488;2024-01-16T07:52:16;6.00;;;1.77;;
25439;SDS011;13365;52.208;5.488;2024-01-16T07:54:41;4.63;;;1.63;;
25439;SDS011;13365;52.208;5.488;2024-01-16T07:57:07;8.60;;;2.20;;
25439;SDS011;13365;52.208;5.488;2024-01-16T07:59:32;5.22;;;2.15;;
25439;SDS011;13365;52.208;5.488;2024-01-16T08:01:58;4.50;;;2.15;;
25439;SDS011;13365;52.208;5.488;2024-01-16T08:04:23;8.65;;;2.65;;
25439;SDS011;13365;52.208;5.488;2024-01-16T08:06:49;8.02;;;2.70;;
25439;SDS011;13365;52.208;5.488;2024-01-16T08:09:15;6.03;;;2.28;;
25439;SDS011;13365;52.208;5.488;2024-01-16T08:11:40;9.23;;;3.30;;
25439;SDS011;13365;52.208;5.488;2024-01-16T08:14:06;7.13;;;3.25;;
25439;SDS011;13365;52.208;5.488;2024-01-16T08:16:31;7.53;;;3.72;;
25439;SDS011;13365;52.208;5.488;2024-01-16T08:18:57;9.43;;;4.60;;
25439;SDS011;13365;52.208;5.488;2024-01-16T08:21:23;11.05;;;4.53;;
25439;SDS011;13365;52.208;5.488;2024-01-16T08:23:48;15.40;;;5.30;;
25439;SDS011;13365;52.208;5.488;2024-01-16T08:26:14;8.23;;;4.40;;
25439;SDS011;13365;52.208;5.488;2024-01-16T08:28:39;13.88;;;6.18;;
25439;SDS011;13365;52.208;5.488;2024-01-16T08:31:05;10.00;;;5.78;;
25439;SDS011;13365;52.208;5.488;2024-01-16T08:33:31;15.60;;;5.57;;
25439;SDS011;13365;52.208;5.488;2024-01-16T08:35:56;16.98;;;6.03;;
25439;SDS011;13365;52.208;5.488;2024-01-16T08:38:22;14.82;;;5.30;;
25439;SDS011;13365;52.208;5.488;2024-01-16T08:40:47;14.45;;;6.22;;
25439;SDS011;13365;52.208;5.488;2024-01-16T08:43:13;17.60;;;5.47;;
25439;SDS011;13365;52.208;5.488;2024-01-16T08:45:39;14.65;;;5.85;;
25439;SDS011;13365;52.208;5.488;2024-01-16T08:48:05;14.30;;;6.30;;
25439;SDS011;13365;52.208;5.488;2024-01-16T08:50:30;18.77;;;5.72;;
25439;SDS011;13365;52.208;5.488;2024-01-16T08:52:56;16.35;;;6.72;;
25439;SDS011;13365;52.208;5.488;2024-01-16T08:55:21;9.88;;;5.00;;
25439;SDS011;13365;52.208;5.488;2024-01-16T08:57:47;17.92;;;5.55;;
25439;SDS011;13365;52.208;5.488;2024-01-16T09:00:13;14.05;;;5.53;;
25439;SDS011;13365;52.208;5.488;2024-01-16T09:02:40;12.57;;;4.78;;
25439;SDS011;13365;52.208;5.488;2024-01-16T09:05:06;10.88;;;4.82;;
25439;SDS011;13365;52.208;5.488;2024-01-16T09:07:31;9.88;;;4.72;;
25439;SDS011;13365;52.208;5.488;2024-01-16T09:09:57;11.13;;;5.32;;
25439;SDS011;13365;52.208;5.488;2024-01-16T09:12:23;11.68;;;5.38;;
25439;SDS011;13365;52.208;5.488;2024-01-16T09:14:49;12.25;;;4.75;;
25439;SDS011;13365;52.208;5.488;2024-01-16T09:17:14;9.23;;;4.63;;
25439;SDS011;13365;52.208;5.488;2024-01-16T09:19:40;13.27;;;5.50;;
25439;SDS011;13365;52.208;5.488;2024-01-16T09:22:06;10.30;;;3.65;;
25439;SDS011;13365;52.208;5.488;2024-01-16T09:24:31;10.02;;;3.88;;
25439;SDS011;13365;52.208;5.488;2024-01-16T09:26:57;8.68;;;3.47;;
25439;SDS011;13365;52.208;5.488;2024-01-16T09:29:23;8.85;;;3.78;;
25439;SDS011;13365;52.208;5.488;2024-01-16T09:31:49;9.57;;;3.22;;
25439;SDS011;13365;52.208;5.488;2024-01-16T09:34:15;10.98;;;3.45;;
25439;SDS011;13365;52.208;5.488;2024-01-16T09:36:42;7.80;;;3.10;;
25439;SDS011;13365;52.208;5.488;2024-01-16T09:39:07;9.07;;;3.20;;
25439;SDS011;13365;52.208;5.488;2024-01-16T09:41:44;7.82;;;2.95;;
25439;SDS011;13365;52.208;5.488;2024-01-16T09:44:09;9.55;;;2.95;;
25439;SDS011;13365;52.208;5.488;2024-01-16T09:46:37;10.98;;;3.17;;
25439;SDS011;13365;52.208;5.488;2024-01-16T09:49:04;9.45;;;2.90;;
25439;SDS011;13365;52.208;5.488;2024-01-16T09:51:30;7.00;;;2.38;;
25439;SDS011;13365;52.208;5.488;2024-01-16T09:53:56;6.97;;;2.58;;
25439;SDS011;13365;52.208;5.488;2024-01-16T09:56:22;7.57;;;2.58;;
25439;SDS011;13365;52.208;5.488;2024-01-16T09:58:54;8.52;;;2.33;;
25439;SDS011;13365;52.208;5.488;2024-01-16T10:01:24;8.00;;;2.85;;
25439;SDS011;13365;52.208;5.488;2024-01-16T10:03:52;15.48;;;3.03;;
25439;SDS011;13365;52.208;5.488;2024-01-16T10:06:19;7.13;;;2.22;;
25439;SDS011;13365;52.208;5.488;2024-01-16T10:08:45;8.20;;;2.35;;
25439;SDS011;13365;52.208;5.488;2024-01-16T10:11:11;11.48;;;2.20;;
25439;SDS011;13365;52.208;5.488;2024-01-16T10:13:37;8.45;;;2.30;;
25439;SDS011;13365;52.208;5.488;2024-01-16T10:16:03;7.85;;;2.10;;
25439;SDS011;13365;52.208;5.488;2024-01-16T10:18:29;9.10;;;2.47;;
25439;SDS011;13365;52.208;5.488;2024-01-16T10:20:56;7.25;;;2.38;;
25439;SDS011;13365;52.208;5.488;2024-01-16T10:23:22;8.07;;;2.53;;
25439;SDS011;13365;52.208;5.488;2024-01-16T10:28:35;6.82;;;2.33;;
25439;SDS011;13365;52.208;5.488;2024-01-16T10:31:05;7.13;;;2.30;;
25439;SDS011;13365;52.208;5.488;2024-01-16T10:33:35;8.45;;;2.20;;
25439;SDS011;13365;52.208;5.488;2024-01-16T10:36:10;5.88;;;1.90;;
25439;SDS011;13365;52.208;5.488;2024-01-16T10:38:44;6.13;;;2.30;;
25439;SDS011;13365;52.208;5.488;2024-01-16T10:43:37;8.15;;;2.35;;
25439;SDS011;13365;52.208;5.488;2024-01-16T10:46:14;11.00;;;2.30;;
25439;SDS011;13365;52.208;5.488;2024-01-16T10:48:59;7.80;;;2.45;;
25439;SDS011;13365;52.208;5.488;2024-01-16T10:51:29;8.95;;;2.25;;
25439;SDS011;13365;52.208;5.488;2024-01-16T10:53:57;9.20;;;2.28;;
25439;SDS011;13365;52.208;5.488;2024-01-16T10:56:24;9.77;;;2.05;;
25439;SDS011;13365;52.208;5.488;2024-01-16T10:58:57;7.95;;;2.05;;
25439;SDS011;13365;52.208;5.488;2024-01-16T11:01:37;7.45;;;2.08;;
25439;SDS011;13365;52.208;5.488;2024-01-16T11:04:04;6.82;;;1.85;;
25439;SDS011;13365;52.208;5.488;2024-01-16T11:06:31;6.93;;;1.75;;
25439;SDS011;13365;52.208;5.488;2024-01-16T11:08:58;8.05;;;2.25;;
25439;SDS011;13365;52.208;5.488;2024-01-16T11:11:25;5.13;;;2.10;;
25439;SDS011;13365;52.208;5.488;2024-01-16T11:13:52;9.00;;;2.08;;
25439;SDS011;13365;52.208;5.488;2024-01-16T11:16:20;4.47;;;2.00;;
25439;SDS011;13365;52.208;5.488;2024-01-16T11:18:47;7.50;;;1.95;;
25439;SDS011;13365;52.208;5.488;2024-01-16T11:21:13;5.10;;;1.95;;
25439;SDS011;13365;52.208;5.488;2024-01-16T11:23:41;4.47;;;1.80;;
25439;SDS011;13365;52.208;5.488;2024-01-16T11:26:25;6.95;;;2.42;;
25439;SDS011;13365;52.208;5.488;2024-01-16T11:28:57;6.10;;;2.22;;
25439;SDS011;13365;52.208;5.488;2024-01-16T11:31:34;10.07;;;1.85;;
25439;SDS011;13365;52.208;5.488;2024-01-16T11:34:01;7.35;;;2.17;;
25439;SDS011;13365;52.208;5.488;2024-01-16T11:39:20;4.97;;;1.88;;
25439;SDS011;13365;52.208;5.488;2024-01-16T11:41:56;11.77;;;1.80;;
25439;SDS011;13365;52.208;5.488;2024-01-16T11:44:39;4.60;;;1.55;;
25439;SDS011;13365;52.208;5.488;2024-01-16T11:47:15;8.07;;;2.10;;
25439;SDS011;13365;52.208;5.488;2024-01-16T11:50:31;5.70;;;1.60;;
25439;SDS011;13365;52.208;5.488;2024-01-16T11:52:39;6.55;;;1.58;;
25439;SDS011;13365;52.208;5.488;2024-01-16T11:55:24;6.45;;;1.70;;
25439;SDS011;13365;52.208;5.488;2024-01-16T12:00:30;4.78;;;1.70;;
25439;SDS011;13365;52.208;5.488;2024-01-16T12:02:57;8.65;;;2.10;;
25439;SDS011;13365;52.208;5.488;2024-01-16T12:05:28;3.85;;;1.67;;
25439;SDS011;13365;52.208;5.488;2024-01-16T12:07:53;8.88;;;1.98;;
25439;SDS011;13365;52.208;5.488;2024-01-16T12:10:20;7.55;;;1.95;;
25439;SDS011;13365;52.208;5.488;2024-01-16T12:12:47;6.70;;;1.20;;
25439;SDS011;13365;52.208;5.488;2024-01-16T12:15:22;7.50;;;1.20;;
25439;SDS011;13365;52.208;5.488;2024-01-16T12:20:24;4.85;;;1.00;;
25439;SDS011;13365;52.208;5.488;2024-01-16T12:25:28;5.85;;;1.25;;
25439;SDS011;13365;52.208;5.488;2024-01-16T12:30:23;3.50;;;1.17;;
25439;SDS011;13365;52.208;5.488;2024-01-16T12:32:50;2.63;;;1.15;;
25439;SDS011;13365;52.208;5.488;2024-01-16T12:35:21;5.53;;;1.60;;
25439;SDS011;13365;52.208;5.488;2024-01-16T12:37:57;2.58;;;1.20;;
25439;SDS011;13365;52.208;5.488;2024-01-16T12:40:27;5.55;;;1.10;;
25439;SDS011;13365;52.208;5.488;2024-01-16T12:42:53;3.58;;;1.20;;
25439;SDS011;13365;52.208;5.488;2024-01-16T12:45:19;6.15;;;1.55;;
25439;SDS011;13365;52.208;5.488;2024-01-16T12:47:49;12.27;;;1.98;;
25439;SDS011;13365;52.208;5.488;2024-01-16T12:50:19;3.83;;;1.65;;
25439;SDS011;13365;52.208;5.488;2024-01-16T12:52:45;6.55;;;1.55;;
25439;SDS011;13365;52.208;5.488;2024-01-16T12:55:11;5.28;;;1.52;;
25439;SDS011;13365;52.208;5.488;2024-01-16T12:57:39;3.28;;;1.33;;
25439;SDS011;13365;52.208;5.488;2024-01-16T13:00:20;5.22;;;1.17;;
25439;SDS011;13365;52.208;5.488;2024-01-16T13:02:51;4.50;;;1.60;;
25439;SDS011;13365;52.208;5.488;2024-01-16T13:05:17;5.60;;;1.60;;
25439;SDS011;13365;52.208;5.488;2024-01-16T13:07:43;5.15;;;1.88;;
25439;SDS011;13365;52.208;5.488;2024-01-16T13:10:10;8.23;;;1.77;;
25439;SDS011;13365;52.208;5.488;2024-01-16T13:12:36;9.10;;;1.77;;
25439;SDS011;13365;52.208;5.488;2024-01-16T13:15:03;9.15;;;1.98;;
25439;SDS011;13365;52.208;5.488;2024-01-16T13:17:31;9.02;;;1.75;;
25439;SDS011;13365;52.208;5.488;2024-01-16T13:20:00;7.47;;;1.75;;
25439;SDS011;13365;52.208;5.488;2024-01-16T13:22:26;5.78;;;1.60;;
25439;SDS011;13365;52.208;5.488;2024-01-16T13:24:52;4.40;;;1.95;;
25439;SDS011;13365;52.208;5.488;2024-01-16T13:27:21;5.93;;;1.63;;
25439;SDS011;13365;52.208;5.488;2024-01-16T13:29:47;6.63;;;1.60;;
25439;SDS011;13365;52.208;5.488;2024-01-16T13:32:12;5.78;;;1.80;;
25439;SDS011;13365;52.208;5.488;2024-01-16T13:34:38;6.68;;;1.63;;
25439;SDS011;13365;52.208;5.488;2024-01-16T13:37:04;7.18;;;1.70;;
25439;SDS011;13365;52.208;5.488;2024-01-16T13:39:30;4.18;;;1.55;;
25439;SDS011;13365;52.208;5.488;2024-01-16T13:42:01;6.22;;;2.05;;
25439;SDS011;13365;52.208;5.488;2024-01-16T13:44:30;6.95;;;1.80;;
25439;SDS011;13365;52.208;5.488;2024-01-16T13:46:56;3.80;;;1.60;;
25439;SDS011;13365;52.208;5.488;2024-01-16T13:49:21;4.60;;;1.73;;
25439;SDS011;13365;52.208;5.488;2024-01-16T13:51:47;7.75;;;1.92;;
25439;SDS011;13365;52.208;5.488;2024-01-16T13:54:14;6.47;;;2.20;;
25439;SDS011;13365;52.208;5.488;2024-01-16T13:56:40;5.60;;;1.95;;
25439;SDS011;13365;52.208;5.488;2024-01-16T13:59:06;4.63;;;1.85;;
25439;SDS011;13365;52.208;5.488;2024-01-16T14:01:31;3.75;;;1.90;;
25439;SDS011;13365;52.208;5.488;2024-01-16T14:03:58;4.32;;;1.98;;
25439;SDS011;13365;52.208;5.488;2024-01-16T14:06:23;5.25;;;1.85;;
25439;SDS011;13365;52.208;5.488;2024-01-16T14:08:49;6.65;;;2.05;;
25439;SDS011;13365;52.208;5.488;2024-01-16T14:11:14;8.55;;;2.05;;
25439;SDS011;13365;52.208;5.488;2024-01-16T14:13:40;7.82;;;2.22;;
25439;SDS011;13365;52.208;5.488;2024-01-16T14:16:05;4.45;;;2.05;;
25439;SDS011;13365;52.208;5.488;2024-01-16T14:18:31;8.35;;;1.73;;
25439;SDS011;13365;52.208;5.488;2024-01-16T14:20:57;6.90;;;1.92;;
25439;SDS011;13365;52.208;5.488;2024-01-16T14:23:22;4.25;;;1.95;;
25439;SDS011;13365;52.208;5.488;2024-01-16T14:25:48;2.78;;;1.25;;
25439;SDS011;13365;52.208;5.488;2024-01-16T14:28:14;4.75;;;1.42;;
25439;SDS011;13365;52.208;5.488;2024-01-16T14:30:39;4.88;;;1.42;;
25439;SDS011;13365;52.208;5.488;2024-01-16T14:33:05;6.72;;;1.70;;
25439;SDS011;13365;52.208;5.488;2024-01-16T14:35:32;9.93;;;1.70;;
25439;SDS011;13365;52.208;5.488;2024-01-16T14:37:58;3.85;;;1.20;;
25439;SDS011;13365;52.208;5.488;2024-01-16T14:40:24;6.40;;;1.45;;
25439;SDS011;13365;52.208;5.488;2024-01-16T14:42:54;5.18;;;1.13;;
25439;SDS011;13365;52.208;5.488;2024-01-16T14:45:22;6.00;;;1.25;;
25439;SDS011;13365;52.208;5.488;2024-01-16T14:47:49;4.47;;;1.15;;
25439;SDS011;13365;52.208;5.488;2024-01-16T14:50:15;4.65;;;1.20;;
25439;SDS011;13365;52.208;5.488;2024-01-16T14:52:45;6.75;;;1.30;;
25439;SDS011;13365;52.208;5.488;2024-01-16T14:55:11;4.90;;;1.58;;
25439;SDS011;13365;52.208;5.488;2024-01-16T14:57:37;5.70;;;1.88;;
25439;SDS011;13365;52.208;5.488;2024-01-16T15:00:16;7.35;;;2.00;;
25439;SDS011;13365;52.208;5.488;2024-01-16T15:02:51;9.23;;;2.22;;
25439;SDS011;13365;52.208;5.488;2024-01-16T15:05:20;7.80;;;2.53;;